IBE0724 EGLL-LEMD
Flight info
| Callsign | IBE0724 |
|---|---|
| Flight time | 1h 55m |
| Altitude | 37000 |
| Route | GASGU N866 SAM M195 MARUK N621 LELNA DCT NOVAN DCT DELOG N864 NONTU |
| Aircraft | A320/M-SDE3FGHIRWY/LB1 |
Departure
| Time | 2026-05-07 18:57 |
|---|---|
| Airport | London Heathrow Airport (EGLL) |
Arrival
| Time | 2026-05-07 20:52 |
|---|---|
| Airport | Adolfo Suárez Madrid–Barajas Airport (LEMD) |
| Time | Latitude | Longitude | Altitude | Speed | Heading |
|---|---|---|---|---|---|
| 2026-05-07 18:27 | 51.47187 | -0.48613 | 86 ft | 0 kts | 269° |
| 2026-05-07 18:44 | 51.47187 | -0.48588 | 88 ft | 4 kts | 271° |
| 2026-05-07 18:44 | 51.47186 | -0.48559 | 86 ft | 4 kts | 272° |
| 2026-05-07 18:45 | 51.47186 | -0.48516 | 86 ft | 4 kts | 264° |
| 2026-05-07 18:45 | 51.47192 | -0.48480 | 88 ft | 4 kts | 211° |
| 2026-05-07 18:45 | 51.47198 | -0.48475 | 90 ft | 0 kts | 179° |
| 2026-05-07 18:49 | 51.47185 | -0.48474 | 88 ft | 4 kts | 177° |
| 2026-05-07 18:49 | 51.47154 | -0.48473 | 86 ft | 5 kts | 179° |
| 2026-05-07 18:49 | 51.47104 | -0.48472 | 86 ft | 8 kts | 180° |
| 2026-05-07 18:49 | 51.47045 | -0.48472 | 86 ft | 9 kts | 179° |
| 2026-05-07 18:50 | 51.46977 | -0.48471 | 89 ft | 11 kts | 179° |
| 2026-05-07 18:50 | 51.46903 | -0.48470 | 87 ft | 11 kts | 179° |
| 2026-05-07 18:50 | 51.46823 | -0.48469 | 86 ft | 11 kts | 180° |
| 2026-05-07 18:50 | 51.46797 | -0.48469 | 86 ft | 0 kts | 180° |
| 2026-05-07 18:51 | 51.46781 | -0.48470 | 86 ft | 7 kts | 181° |
| 2026-05-07 18:52 | 51.46745 | -0.48515 | 87 ft | 6 kts | 248° |
| 2026-05-07 18:52 | 51.46741 | -0.48621 | 86 ft | 10 kts | 269° |
| 2026-05-07 18:52 | 51.46731 | -0.48722 | 89 ft | 9 kts | 238° |
| 2026-05-07 18:52 | 51.46684 | -0.48749 | 86 ft | 7 kts | 177° |
| 2026-05-07 18:53 | 51.46636 | -0.48750 | 86 ft | 7 kts | 187° |
| 2026-05-07 18:53 | 51.46616 | -0.48758 | 87 ft | 0 kts | 197° |
| 2026-05-07 18:54 | 51.46613 | -0.48759 | 86 ft | 3 kts | 197° |
| 2026-05-07 18:54 | 51.46591 | -0.48770 | 87 ft | 3 kts | 197° |
| 2026-05-07 18:54 | 51.46573 | -0.48779 | 86 ft | 5 kts | 197° |
| 2026-05-07 18:55 | 51.46532 | -0.48785 | 87 ft | 6 kts | 171° |
| 2026-05-07 18:55 | 51.46497 | -0.48753 | 86 ft | 7 kts | 135° |
| 2026-05-07 18:55 | 51.46479 | -0.48673 | 87 ft | 8 kts | 95° |
| 2026-05-07 18:55 | 51.46478 | -0.48628 | 86 ft | 0 kts | 90° |
| 2026-05-07 18:56 | 51.46478 | -0.48616 | 86 ft | 12 kts | 90° |
| 2026-05-07 18:56 | 51.46469 | -0.48067 | 87 ft | 74 kts | 91° |
| 2026-05-07 18:56 | 51.46481 | -0.46960 | 88 ft | 125 kts | 90° |
| 2026-05-07 18:56 | 51.46490 | -0.45310 | 166 ft | 162 kts | 90° |
| 2026-05-07 18:57 | 51.46487 | -0.43503 | 799 ft | 162 kts | 92° |
| 2026-05-07 18:57 | 51.46366 | -0.41702 | 1477 ft | 163 kts | 102° |
| 2026-05-07 18:57 | 51.46020 | -0.39957 | 2089 ft | 168 kts | 123° |
| 2026-05-07 18:57 | 51.45317 | -0.38524 | 2910 ft | 156 kts | 130° |
| 2026-05-07 18:58 | 51.44605 | -0.37297 | 3666 ft | 147 kts | 134° |
| 2026-05-07 18:58 | 51.43808 | -0.36081 | 3912 ft | 176 kts | 137° |
| 2026-05-07 18:58 | 51.42776 | -0.34652 | 3928 ft | 218 kts | 139° |
| 2026-05-07 18:58 | 51.41417 | -0.33087 | 3981 ft | 258 kts | 156° |
| 2026-05-07 18:59 | 51.39653 | -0.32801 | 4990 ft | 255 kts | 189° |
| 2026-05-07 18:59 | 51.37969 | -0.33845 | 5665 ft | 268 kts | 214° |
| 2026-05-07 18:59 | 51.36554 | -0.35822 | 5921 ft | 272 kts | 223° |
| 2026-05-07 18:59 | 51.35173 | -0.37890 | 6000 ft | 271 kts | 223° |
| 2026-05-07 19:00 | 51.33791 | -0.39938 | 6012 ft | 271 kts | 222° |
| 2026-05-07 19:00 | 51.32400 | -0.41976 | 6013 ft | 272 kts | 222° |
| 2026-05-07 19:00 | 51.31086 | -0.44145 | 6039 ft | 272 kts | 234° |
| 2026-05-07 19:00 | 51.30167 | -0.46774 | 6333 ft | 273 kts | 249° |
| 2026-05-07 19:01 | 51.29616 | -0.49673 | 6638 ft | 273 kts | 255° |
| 2026-05-07 19:01 | 51.29099 | -0.52579 | 7023 ft | 272 kts | 254° |
| 2026-05-07 19:01 | 51.28573 | -0.55484 | 7449 ft | 273 kts | 254° |
| 2026-05-07 19:01 | 51.28038 | -0.58388 | 7880 ft | 273 kts | 253° |
| 2026-05-07 19:02 | 51.27481 | -0.61291 | 8323 ft | 274 kts | 253° |
| 2026-05-07 19:02 | 51.26911 | -0.64199 | 8768 ft | 274 kts | 252° |
| 2026-05-07 19:02 | 51.26344 | -0.67073 | 9222 ft | 275 kts | 252° |
| 2026-05-07 19:02 | 51.25766 | -0.70010 | 9682 ft | 275 kts | 252° |
| 2026-05-07 19:03 | 51.25193 | -0.72932 | 10120 ft | 276 kts | 252° |
| 2026-05-07 19:03 | 51.24607 | -0.75931 | 10538 ft | 291 kts | 252° |
| 2026-05-07 19:03 | 51.23988 | -0.79104 | 10964 ft | 308 kts | 252° |
| 2026-05-07 19:03 | 51.23335 | -0.82442 | 11406 ft | 323 kts | 252° |
| 2026-05-07 19:04 | 51.22655 | -0.85901 | 11830 ft | 329 kts | 252° |
| 2026-05-07 19:04 | 51.21965 | -0.89404 | 12260 ft | 333 kts | 252° |
| 2026-05-07 19:04 | 51.21238 | -0.92932 | 12711 ft | 335 kts | 247° |
| 2026-05-07 19:04 | 51.20155 | -0.96233 | 13177 ft | 337 kts | 235° |
| 2026-05-07 19:05 | 51.18658 | -0.99108 | 13633 ft | 338 kts | 224° |
| 2026-05-07 19:05 | 51.16951 | -1.01712 | 14066 ft | 341 kts | 223° |
| 2026-05-07 19:05 | 51.15236 | -1.04339 | 14477 ft | 343 kts | 224° |
| 2026-05-07 19:05 | 51.13515 | -1.06986 | 14888 ft | 345 kts | 224° |
| 2026-05-07 19:06 | 51.11785 | -1.09647 | 15030 ft | 346 kts | 224° |
| 2026-05-07 19:06 | 51.08319 | -1.14976 | 15055 ft | 346 kts | 224° |
| 2026-05-07 19:06 | 51.06589 | -1.17635 | 15056 ft | 346 kts | 224° |
| 2026-05-07 19:07 | 51.04857 | -1.20288 | 15055 ft | 346 kts | 224° |
| 2026-05-07 19:07 | 51.03127 | -1.22931 | 15057 ft | 346 kts | 224° |
| 2026-05-07 19:07 | 51.01391 | -1.25575 | 15057 ft | 346 kts | 224° |
| 2026-05-07 19:07 | 50.99654 | -1.28218 | 15057 ft | 346 kts | 224° |
| 2026-05-07 19:08 | 50.97917 | -1.30859 | 15055 ft | 346 kts | 224° |
| 2026-05-07 19:08 | 50.96175 | -1.33500 | 15178 ft | 349 kts | 222° |
| 2026-05-07 19:08 | 50.94242 | -1.35838 | 15860 ft | 351 kts | 213° |
| 2026-05-07 19:08 | 50.92167 | -1.38001 | 16534 ft | 353 kts | 214° |
| 2026-05-07 19:09 | 50.90129 | -1.40123 | 17178 ft | 356 kts | 214° |
| 2026-05-07 19:09 | 50.88054 | -1.42286 | 17812 ft | 359 kts | 214° |
| 2026-05-07 19:09 | 50.85953 | -1.44478 | 18417 ft | 362 kts | 214° |
| 2026-05-07 19:09 | 50.83840 | -1.46677 | 18951 ft | 365 kts | 214° |
| 2026-05-07 19:10 | 50.81711 | -1.48887 | 19483 ft | 367 kts | 214° |
| 2026-05-07 19:10 | 50.79537 | -1.51139 | 20020 ft | 370 kts | 214° |
| 2026-05-07 19:10 | 50.77378 | -1.53370 | 20535 ft | 372 kts | 214° |
| 2026-05-07 19:10 | 50.75205 | -1.55616 | 21065 ft | 375 kts | 214° |
| 2026-05-07 19:11 | 50.73013 | -1.57878 | 21577 ft | 377 kts | 213° |
| 2026-05-07 19:11 | 50.70809 | -1.60155 | 22083 ft | 380 kts | 213° |
| 2026-05-07 19:11 | 50.68589 | -1.62445 | 22578 ft | 382 kts | 213° |
| 2026-05-07 19:11 | 50.66356 | -1.64744 | 23054 ft | 385 kts | 213° |
| 2026-05-07 19:12 | 50.64105 | -1.67058 | 23542 ft | 387 kts | 213° |
| 2026-05-07 19:12 | 50.61840 | -1.69386 | 23934 ft | 389 kts | 213° |
| 2026-05-07 19:12 | 50.59568 | -1.71723 | 24338 ft | 391 kts | 213° |
| 2026-05-07 19:12 | 50.57279 | -1.74071 | 24734 ft | 393 kts | 213° |
| 2026-05-07 19:13 | 50.54980 | -1.76422 | 25115 ft | 395 kts | 213° |
| 2026-05-07 19:13 | 50.52666 | -1.78784 | 25497 ft | 398 kts | 213° |
| 2026-05-07 19:13 | 50.50344 | -1.81157 | 25869 ft | 400 kts | 213° |
| 2026-05-07 19:13 | 50.47930 | -1.83340 | 26221 ft | 402 kts | 203° |
| 2026-05-07 19:14 | 50.45296 | -1.84870 | 26573 ft | 405 kts | 200° |
| 2026-05-07 19:14 | 50.42635 | -1.86351 | 26952 ft | 407 kts | 200° |
| 2026-05-07 19:14 | 50.39957 | -1.87826 | 27307 ft | 409 kts | 200° |
| 2026-05-07 19:14 | 50.37269 | -1.89299 | 27672 ft | 411 kts | 200° |
| 2026-05-07 19:15 | 50.34564 | -1.90780 | 28033 ft | 413 kts | 200° |
| 2026-05-07 19:15 | 50.31850 | -1.92269 | 28375 ft | 415 kts | 200° |
| 2026-05-07 19:15 | 50.30043 | -1.93262 | 28614 ft | 416 kts | 200° |
| 2026-05-07 19:15 | 50.26377 | -1.95281 | 29057 ft | 419 kts | 200° |
| 2026-05-07 19:16 | 50.24557 | -1.96284 | 29251 ft | 420 kts | 200° |
| 2026-05-07 19:16 | 50.21795 | -1.97802 | 29567 ft | 422 kts | 200° |
| 2026-05-07 19:16 | 50.19014 | -1.99327 | 29873 ft | 424 kts | 200° |
| 2026-05-07 19:16 | 50.16186 | -2.00874 | 30162 ft | 426 kts | 200° |
| 2026-05-07 19:17 | 50.13384 | -2.02404 | 30396 ft | 428 kts | 200° |
| 2026-05-07 19:17 | 50.10568 | -2.03941 | 30654 ft | 429 kts | 200° |
| 2026-05-07 19:17 | 50.07742 | -2.05483 | 30917 ft | 431 kts | 200° |
| 2026-05-07 19:17 | 50.04907 | -2.07030 | 31179 ft | 432 kts | 200° |
| 2026-05-07 19:18 | 50.02074 | -2.08570 | 31547 ft | 430 kts | 200° |
| 2026-05-07 19:18 | 49.99249 | -2.10101 | 31914 ft | 429 kts | 200° |
| 2026-05-07 19:18 | 49.96417 | -2.11591 | 32274 ft | 428 kts | 199° |
| 2026-05-07 19:18 | 49.93583 | -2.12973 | 32612 ft | 427 kts | 198° |
| 2026-05-07 19:19 | 49.90776 | -2.14272 | 32955 ft | 426 kts | 197° |
| 2026-05-07 19:19 | 49.87896 | -2.15575 | 33305 ft | 425 kts | 197° |
| 2026-05-07 19:19 | 49.85062 | -2.16856 | 33662 ft | 424 kts | 197° |
| 2026-05-07 19:19 | 49.82234 | -2.18141 | 34020 ft | 423 kts | 197° |
| 2026-05-07 19:20 | 49.79417 | -2.19433 | 34299 ft | 422 kts | 197° |
| 2026-05-07 19:20 | 49.76601 | -2.20736 | 34551 ft | 422 kts | 198° |
| 2026-05-07 19:20 | 49.73783 | -2.22044 | 34783 ft | 423 kts | 198° |
| 2026-05-07 19:20 | 49.70965 | -2.23354 | 34989 ft | 424 kts | 198° |
| 2026-05-07 19:21 | 49.68137 | -2.24668 | 35202 ft | 424 kts | 198° |
| 2026-05-07 19:21 | 49.65309 | -2.25980 | 35432 ft | 425 kts | 198° |
| 2026-05-07 19:21 | 49.62474 | -2.27294 | 35645 ft | 425 kts | 198° |
| 2026-05-07 19:21 | 49.59637 | -2.28612 | 35847 ft | 426 kts | 198° |
| 2026-05-07 19:22 | 49.56798 | -2.29925 | 36037 ft | 427 kts | 198° |
| 2026-05-07 19:22 | 49.53951 | -2.31240 | 36240 ft | 427 kts | 198° |
| 2026-05-07 19:22 | 49.51104 | -2.32552 | 36438 ft | 428 kts | 198° |
| 2026-05-07 19:22 | 49.48248 | -2.33863 | 36615 ft | 428 kts | 198° |
| 2026-05-07 19:23 | 49.45392 | -2.35170 | 36797 ft | 429 kts | 198° |
| 2026-05-07 19:23 | 49.42529 | -2.36477 | 36979 ft | 430 kts | 198° |
| 2026-05-07 19:23 | 49.36796 | -2.39097 | 37024 ft | 429 kts | 198° |
| 2026-05-07 19:24 | 49.31082 | -2.41710 | 37021 ft | 429 kts | 198° |
| 2026-05-07 19:24 | 49.25367 | -2.44313 | 37025 ft | 428 kts | 198° |
| 2026-05-07 19:25 | 49.19649 | -2.46905 | 37017 ft | 428 kts | 198° |
| 2026-05-07 19:25 | 49.13935 | -2.49488 | 37019 ft | 429 kts | 198° |
| 2026-05-07 19:26 | 49.08205 | -2.52066 | 37022 ft | 429 kts | 198° |
| 2026-05-07 19:26 | 49.02481 | -2.54653 | 36999 ft | 429 kts | 198° |
| 2026-05-07 19:27 | 48.96759 | -2.57240 | 36998 ft | 429 kts | 198° |
| 2026-05-07 19:27 | 48.91031 | -2.59807 | 36997 ft | 430 kts | 198° |
| 2026-05-07 19:28 | 48.85291 | -2.62372 | 37009 ft | 430 kts | 198° |
| 2026-05-07 19:28 | 48.79551 | -2.64935 | 37017 ft | 430 kts | 198° |
| 2026-05-07 19:29 | 48.73806 | -2.67489 | 37011 ft | 430 kts | 198° |
| 2026-05-07 19:29 | 48.68060 | -2.70049 | 37004 ft | 430 kts | 198° |
| 2026-05-07 19:30 | 48.62312 | -2.72604 | 37007 ft | 431 kts | 198° |
| 2026-05-07 19:30 | 48.56521 | -2.75167 | 37003 ft | 431 kts | 198° |
| 2026-05-07 19:31 | 48.50765 | -2.77701 | 36999 ft | 431 kts | 198° |
| 2026-05-07 19:31 | 48.45040 | -2.80215 | 37006 ft | 431 kts | 198° |
| 2026-05-07 19:32 | 48.39278 | -2.82742 | 36992 ft | 431 kts | 198° |
| 2026-05-07 19:32 | 48.33480 | -2.85280 | 36993 ft | 431 kts | 198° |
| 2026-05-07 19:33 | 48.27715 | -2.87798 | 36994 ft | 432 kts | 198° |
| 2026-05-07 19:33 | 48.21948 | -2.90320 | 36992 ft | 432 kts | 198° |
| 2026-05-07 19:34 | 48.16178 | -2.92835 | 36988 ft | 432 kts | 198° |
| 2026-05-07 19:34 | 48.10404 | -2.95337 | 36996 ft | 432 kts | 198° |
| 2026-05-07 19:35 | 48.04629 | -2.97838 | 37001 ft | 432 kts | 198° |
| 2026-05-07 19:35 | 47.98848 | -3.00340 | 36998 ft | 433 kts | 198° |
| 2026-05-07 19:36 | 47.93063 | -3.02837 | 36989 ft | 433 kts | 198° |
| 2026-05-07 19:36 | 47.87266 | -3.05322 | 36993 ft | 433 kts | 198° |
| 2026-05-07 19:37 | 47.81470 | -3.07812 | 36991 ft | 434 kts | 198° |
| 2026-05-07 19:37 | 47.75669 | -3.10292 | 36980 ft | 434 kts | 198° |
| 2026-05-07 19:38 | 47.69864 | -3.12767 | 36984 ft | 434 kts | 198° |
| 2026-05-07 19:38 | 47.64051 | -3.15251 | 36988 ft | 435 kts | 198° |
| 2026-05-07 19:39 | 47.58236 | -3.17717 | 36991 ft | 435 kts | 198° |
| 2026-05-07 19:39 | 47.52415 | -3.20181 | 36991 ft | 435 kts | 198° |
| 2026-05-07 19:40 | 47.46593 | -3.22648 | 36993 ft | 435 kts | 198° |
| 2026-05-07 19:40 | 47.40768 | -3.25114 | 36992 ft | 435 kts | 198° |
| 2026-05-07 19:41 | 47.34942 | -3.27568 | 36994 ft | 435 kts | 198° |
| 2026-05-07 19:41 | 47.29097 | -3.30027 | 37005 ft | 440 kts | 198° |
| 2026-05-07 19:42 | 47.23145 | -3.32523 | 37002 ft | 448 kts | 198° |
| 2026-05-07 19:42 | 47.17126 | -3.35035 | 37000 ft | 450 kts | 198° |
| 2026-05-07 19:43 | 47.11098 | -3.37543 | 36997 ft | 451 kts | 198° |
| 2026-05-07 19:43 | 47.05055 | -3.40057 | 37003 ft | 451 kts | 198° |
| 2026-05-07 19:44 | 46.99014 | -3.42563 | 36993 ft | 451 kts | 198° |
| 2026-05-07 19:44 | 46.92973 | -3.45068 | 36996 ft | 451 kts | 198° |
| 2026-05-07 19:45 | 46.86930 | -3.47570 | 36991 ft | 451 kts | 198° |
| 2026-05-07 19:45 | 46.80878 | -3.50062 | 36988 ft | 452 kts | 198° |
| 2026-05-07 19:46 | 46.74823 | -3.52545 | 36988 ft | 452 kts | 198° |
| 2026-05-07 19:46 | 46.68772 | -3.55033 | 36991 ft | 452 kts | 198° |
| 2026-05-07 19:47 | 46.62719 | -3.57522 | 36991 ft | 452 kts | 198° |
| 2026-05-07 19:47 | 46.56660 | -3.59988 | 36987 ft | 452 kts | 198° |
| 2026-05-07 19:48 | 46.50601 | -3.62445 | 36981 ft | 452 kts | 198° |
| 2026-05-07 19:48 | 46.45529 | -3.64515 | 36981 ft | 452 kts | 198° |
| 2026-05-07 19:49 | 46.39469 | -3.66980 | 36978 ft | 452 kts | 198° |
| 2026-05-07 19:49 | 46.33407 | -3.69432 | 36976 ft | 453 kts | 197° |
| 2026-05-07 19:50 | 46.27144 | -3.70693 | 36966 ft | 456 kts | 188° |
| 2026-05-07 19:50 | 46.20829 | -3.71616 | 36966 ft | 456 kts | 188° |
| 2026-05-07 19:51 | 46.14510 | -3.72550 | 36979 ft | 457 kts | 188° |
| 2026-05-07 19:51 | 46.08185 | -3.73496 | 36973 ft | 457 kts | 188° |
| 2026-05-07 19:52 | 46.01862 | -3.74434 | 36976 ft | 457 kts | 188° |
| 2026-05-07 19:52 | 45.95538 | -3.75380 | 36979 ft | 457 kts | 188° |
| 2026-05-07 19:53 | 45.89214 | -3.76323 | 36958 ft | 457 kts | 188° |
| 2026-05-07 19:53 | 45.82886 | -3.77258 | 36962 ft | 457 kts | 188° |
| 2026-05-07 19:54 | 45.76555 | -3.78189 | 36964 ft | 457 kts | 188° |
| 2026-05-07 19:54 | 45.70218 | -3.79110 | 36953 ft | 458 kts | 188° |
| 2026-05-07 19:55 | 45.63878 | -3.80035 | 36959 ft | 458 kts | 188° |
| 2026-05-07 19:55 | 45.57537 | -3.80960 | 36960 ft | 458 kts | 188° |
| 2026-05-07 19:56 | 45.51189 | -3.81884 | 36956 ft | 458 kts | 189° |
| 2026-05-07 19:56 | 45.44844 | -3.82807 | 36960 ft | 458 kts | 189° |
| 2026-05-07 19:57 | 45.38501 | -3.83731 | 36960 ft | 458 kts | 189° |
| 2026-05-07 19:57 | 45.32147 | -3.84659 | 36963 ft | 458 kts | 189° |
| 2026-05-07 19:58 | 45.25802 | -3.85585 | 36955 ft | 458 kts | 189° |
| 2026-05-07 19:58 | 45.19452 | -3.86488 | 36951 ft | 459 kts | 189° |
| 2026-05-07 19:59 | 45.13106 | -3.87384 | 36955 ft | 459 kts | 189° |
| 2026-05-07 19:59 | 45.06751 | -3.88293 | 36948 ft | 459 kts | 189° |
| 2026-05-07 20:00 | 45.00392 | -3.89205 | 36948 ft | 459 kts | 189° |
| 2026-05-07 20:00 | 44.94044 | -3.90113 | 36954 ft | 459 kts | 189° |
| 2026-05-07 20:01 | 44.87692 | -3.91019 | 36945 ft | 459 kts | 189° |
| 2026-05-07 20:01 | 44.81338 | -3.91920 | 36948 ft | 459 kts | 189° |
| 2026-05-07 20:02 | 44.74986 | -3.92824 | 36949 ft | 459 kts | 189° |
| 2026-05-07 20:02 | 44.68629 | -3.93724 | 36949 ft | 459 kts | 189° |
| 2026-05-07 20:03 | 44.62271 | -3.94626 | 36947 ft | 459 kts | 189° |
| 2026-05-07 20:03 | 44.55914 | -3.95521 | 36948 ft | 459 kts | 189° |
| 2026-05-07 20:04 | 44.49555 | -3.96413 | 36930 ft | 459 kts | 189° |
| 2026-05-07 20:04 | 44.43188 | -3.97308 | 36932 ft | 459 kts | 189° |
| 2026-05-07 20:05 | 44.36827 | -3.98194 | 36931 ft | 459 kts | 189° |
| 2026-05-07 20:05 | 44.30384 | -3.98519 | 36925 ft | 464 kts | 179° |
| 2026-05-07 20:06 | 44.23983 | -3.97876 | 36924 ft | 464 kts | 179° |
| 2026-05-07 20:06 | 44.17499 | -3.97226 | 36924 ft | 464 kts | 179° |
| 2026-05-07 20:07 | 44.11052 | -3.96600 | 36906 ft | 464 kts | 179° |
| 2026-05-07 20:07 | 44.04601 | -3.95983 | 36913 ft | 465 kts | 179° |
| 2026-05-07 20:08 | 43.98142 | -3.95353 | 36917 ft | 465 kts | 179° |
| 2026-05-07 20:08 | 43.91676 | -3.94729 | 36898 ft | 465 kts | 180° |
| 2026-05-07 20:09 | 43.85215 | -3.94108 | 36903 ft | 466 kts | 180° |
| 2026-05-07 20:10 | 43.75520 | -3.93171 | 36888 ft | 466 kts | 180° |
| 2026-05-07 20:10 | 43.69054 | -3.92548 | 36895 ft | 466 kts | 180° |
| 2026-05-07 20:11 | 43.62579 | -3.91928 | 36908 ft | 466 kts | 180° |
| 2026-05-07 20:11 | 43.56107 | -3.91306 | 36885 ft | 466 kts | 180° |
| 2026-05-07 20:12 | 43.49625 | -3.90677 | 36878 ft | 467 kts | 180° |
| 2026-05-07 20:12 | 43.43164 | -3.90496 | 36881 ft | 461 kts | 191° |
| 2026-05-07 20:13 | 43.36791 | -3.91472 | 36887 ft | 461 kts | 191° |
| 2026-05-07 20:13 | 43.30404 | -3.92419 | 36887 ft | 462 kts | 191° |
| 2026-05-07 20:14 | 43.24014 | -3.93352 | 36897 ft | 462 kts | 191° |
| 2026-05-07 20:14 | 43.17611 | -3.94280 | 36916 ft | 462 kts | 191° |
| 2026-05-07 20:15 | 43.11214 | -3.95229 | 36918 ft | 463 kts | 191° |
| 2026-05-07 20:15 | 43.04810 | -3.96181 | 36935 ft | 460 kts | 191° |
| 2026-05-07 20:16 | 42.98522 | -3.97096 | 36947 ft | 450 kts | 191° |
| 2026-05-07 20:16 | 42.92305 | -3.98003 | 36952 ft | 449 kts | 192° |
| 2026-05-07 20:17 | 42.86087 | -3.98916 | 36948 ft | 449 kts | 192° |
| 2026-05-07 20:17 | 42.79878 | -3.99819 | 36951 ft | 449 kts | 192° |
| 2026-05-07 20:18 | 42.73667 | -4.00717 | 36962 ft | 449 kts | 192° |
| 2026-05-07 20:18 | 42.67449 | -4.01626 | 36967 ft | 449 kts | 192° |
| 2026-05-07 20:19 | 42.61230 | -4.02536 | 36970 ft | 449 kts | 192° |
| 2026-05-07 20:19 | 42.55005 | -4.03436 | 36971 ft | 449 kts | 192° |
| 2026-05-07 20:20 | 42.48785 | -4.04325 | 36955 ft | 449 kts | 192° |
| 2026-05-07 20:20 | 42.42565 | -4.05226 | 36967 ft | 449 kts | 192° |
| 2026-05-07 20:21 | 42.36346 | -4.06123 | 36970 ft | 449 kts | 192° |
| 2026-05-07 20:21 | 42.31181 | -4.06864 | 36965 ft | 449 kts | 193° |
| 2026-05-07 20:22 | 42.24962 | -4.07746 | 36961 ft | 449 kts | 193° |
| 2026-05-07 20:22 | 42.18753 | -4.08636 | 36965 ft | 449 kts | 193° |
| 2026-05-07 20:23 | 42.12540 | -4.09526 | 36962 ft | 449 kts | 193° |
| 2026-05-07 20:23 | 42.06330 | -4.10406 | 36958 ft | 448 kts | 193° |
| 2026-05-07 20:24 | 42.00128 | -4.11265 | 36958 ft | 448 kts | 192° |
| 2026-05-07 20:24 | 41.93902 | -4.11982 | 36961 ft | 449 kts | 191° |
| 2026-05-07 20:25 | 41.87676 | -4.12637 | 36956 ft | 448 kts | 192° |
| 2026-05-07 20:25 | 41.81464 | -4.13322 | 36963 ft | 448 kts | 192° |
| 2026-05-07 20:26 | 41.75258 | -4.14036 | 36960 ft | 447 kts | 192° |
| 2026-05-07 20:26 | 41.69065 | -4.14752 | 36939 ft | 447 kts | 192° |
| 2026-05-07 20:27 | 41.62872 | -4.15448 | 36959 ft | 445 kts | 192° |
| 2026-05-07 20:27 | 41.56707 | -4.16146 | 36960 ft | 444 kts | 192° |
| 2026-05-07 20:28 | 41.50551 | -4.16839 | 36955 ft | 443 kts | 192° |
| 2026-05-07 20:28 | 41.44405 | -4.17527 | 36936 ft | 443 kts | 192° |
| 2026-05-07 20:29 | 41.38272 | -4.18219 | 36941 ft | 442 kts | 192° |
| 2026-05-07 20:29 | 41.32098 | -4.18913 | 36943 ft | 442 kts | 192° |
| 2026-05-07 20:30 | 41.25965 | -4.19600 | 36932 ft | 443 kts | 192° |
| 2026-05-07 20:30 | 41.19804 | -4.20073 | 36952 ft | 444 kts | 190° |
| 2026-05-07 20:31 | 41.13621 | -4.20364 | 36963 ft | 445 kts | 189° |
| 2026-05-07 20:31 | 41.07438 | -4.20669 | 36969 ft | 444 kts | 190° |
| 2026-05-07 20:31 | 41.04353 | -4.20848 | 36219 ft | 444 kts | 191° |
| 2026-05-07 20:32 | 41.01239 | -4.21047 | 34690 ft | 452 kts | 191° |
| 2026-05-07 20:32 | 40.98071 | -4.21260 | 33201 ft | 459 kts | 191° |
| 2026-05-07 20:32 | 40.94882 | -4.21467 | 31923 ft | 457 kts | 190° |
| 2026-05-07 20:32 | 40.91729 | -4.21655 | 30799 ft | 452 kts | 190° |
| 2026-05-07 20:33 | 40.88607 | -4.21835 | 29715 ft | 446 kts | 189° |
| 2026-05-07 20:33 | 40.85529 | -4.22011 | 28538 ft | 440 kts | 189° |
| 2026-05-07 20:33 | 40.82493 | -4.22190 | 27416 ft | 434 kts | 188° |
| 2026-05-07 20:33 | 40.79495 | -4.22370 | 26365 ft | 428 kts | 188° |
| 2026-05-07 20:34 | 40.76532 | -4.22551 | 25340 ft | 423 kts | 188° |
| 2026-05-07 20:34 | 40.73607 | -4.22731 | 24340 ft | 419 kts | 187° |
| 2026-05-07 20:34 | 40.70707 | -4.22908 | 23330 ft | 415 kts | 187° |
| 2026-05-07 20:34 | 40.67836 | -4.23081 | 22253 ft | 410 kts | 186° |
| 2026-05-07 20:35 | 40.65016 | -4.23249 | 21331 ft | 401 kts | 185° |
| 2026-05-07 20:35 | 40.62256 | -4.23414 | 20460 ft | 393 kts | 185° |
| 2026-05-07 20:35 | 40.59555 | -4.23576 | 19620 ft | 385 kts | 185° |
| 2026-05-07 20:35 | 40.56907 | -4.23734 | 18823 ft | 377 kts | 184° |
| 2026-05-07 20:36 | 40.54316 | -4.23865 | 18030 ft | 369 kts | 180° |
| 2026-05-07 20:36 | 40.51807 | -4.23462 | 17415 ft | 357 kts | 168° |
| 2026-05-07 20:36 | 40.49505 | -4.22440 | 16988 ft | 342 kts | 160° |
| 2026-05-07 20:36 | 40.47328 | -4.21324 | 16543 ft | 328 kts | 160° |
| 2026-05-07 20:37 | 40.45236 | -4.20255 | 16123 ft | 316 kts | 160° |
| 2026-05-07 20:37 | 40.43215 | -4.19224 | 15721 ft | 307 kts | 161° |
| 2026-05-07 20:37 | 40.41207 | -4.18200 | 15313 ft | 310 kts | 160° |
| 2026-05-07 20:37 | 40.39195 | -4.17169 | 14897 ft | 311 kts | 160° |
| 2026-05-07 20:38 | 40.37201 | -4.16042 | 14489 ft | 313 kts | 152° |
| 2026-05-07 20:38 | 40.35424 | -4.14376 | 14075 ft | 316 kts | 138° |
| 2026-05-07 20:38 | 40.33997 | -4.12163 | 13681 ft | 324 kts | 123° |
| 2026-05-07 20:38 | 40.33015 | -4.09520 | 13296 ft | 328 kts | 110° |
| 2026-05-07 20:39 | 40.32300 | -4.06640 | 12917 ft | 328 kts | 109° |
| 2026-05-07 20:39 | 40.31603 | -4.03846 | 12554 ft | 326 kts | 109° |
| 2026-05-07 20:39 | 40.30888 | -4.00992 | 12198 ft | 324 kts | 109° |
| 2026-05-07 20:39 | 40.30192 | -3.98232 | 11836 ft | 323 kts | 110° |
| 2026-05-07 20:40 | 40.29491 | -3.95447 | 11468 ft | 321 kts | 110° |
| 2026-05-07 20:40 | 40.28794 | -3.92679 | 11111 ft | 319 kts | 110° |
| 2026-05-07 20:40 | 40.28099 | -3.89926 | 10742 ft | 317 kts | 110° |
| 2026-05-07 20:40 | 40.27407 | -3.87190 | 10382 ft | 315 kts | 110° |
| 2026-05-07 20:41 | 40.26723 | -3.84483 | 10143 ft | 308 kts | 110° |
| 2026-05-07 20:41 | 40.26062 | -3.81867 | 10001 ft | 298 kts | 110° |
| 2026-05-07 20:41 | 40.25418 | -3.79322 | 9814 ft | 293 kts | 110° |
| 2026-05-07 20:41 | 40.24778 | -3.76795 | 9491 ft | 291 kts | 110° |
| 2026-05-07 20:42 | 40.24142 | -3.74289 | 9189 ft | 289 kts | 110° |
| 2026-05-07 20:42 | 40.23508 | -3.71804 | 8852 ft | 286 kts | 110° |
| 2026-05-07 20:42 | 40.22881 | -3.69345 | 8514 ft | 284 kts | 110° |
| 2026-05-07 20:42 | 40.22257 | -3.66899 | 8193 ft | 282 kts | 110° |
| 2026-05-07 20:43 | 40.21638 | -3.64470 | 7858 ft | 280 kts | 110° |
| 2026-05-07 20:43 | 40.21025 | -3.62060 | 7536 ft | 278 kts | 110° |
| 2026-05-07 20:43 | 40.20413 | -3.59661 | 7219 ft | 276 kts | 110° |
| 2026-05-07 20:43 | 40.19806 | -3.57288 | 6904 ft | 275 kts | 110° |
| 2026-05-07 20:44 | 40.19198 | -3.54917 | 6582 ft | 273 kts | 110° |
| 2026-05-07 20:44 | 40.18598 | -3.52579 | 6262 ft | 270 kts | 110° |
| 2026-05-07 20:44 | 40.18013 | -3.50299 | 6126 ft | 258 kts | 110° |
| 2026-05-07 20:44 | 40.17636 | -3.48065 | 6028 ft | 250 kts | 93° |
| 2026-05-07 20:45 | 40.17909 | -3.45822 | 5985 ft | 253 kts | 71° |
| 2026-05-07 20:45 | 40.18826 | -3.43837 | 5567 ft | 259 kts | 47° |
| 2026-05-07 20:45 | 40.20163 | -3.42263 | 5196 ft | 258 kts | 43° |
| 2026-05-07 20:45 | 40.21609 | -3.40891 | 4826 ft | 257 kts | 31° |
| 2026-05-07 20:46 | 40.23174 | -3.39759 | 4461 ft | 256 kts | 31° |
| 2026-05-07 20:46 | 40.24791 | -3.38796 | 4101 ft | 256 kts | 17° |
| 2026-05-07 20:46 | 40.26534 | -3.38513 | 3990 ft | 248 kts | 359° |
| 2026-05-07 20:46 | 40.28195 | -3.38771 | 3994 ft | 233 kts | 353° |
| 2026-05-07 20:47 | 40.29725 | -3.39106 | 3995 ft | 220 kts | 343° |
| 2026-05-07 20:47 | 40.31034 | -3.39941 | 4010 ft | 200 kts | 323° |
| 2026-05-07 20:47 | 40.32077 | -3.40990 | 4024 ft | 176 kts | 322° |
| 2026-05-07 20:47 | 40.33020 | -3.41942 | 4002 ft | 167 kts | 322° |
| 2026-05-07 20:48 | 40.33929 | -3.42860 | 4002 ft | 164 kts | 321° |
| 2026-05-07 20:48 | 40.34831 | -3.43771 | 4011 ft | 163 kts | 322° |
| 2026-05-07 20:48 | 40.35730 | -3.44680 | 4009 ft | 163 kts | 323° |
| 2026-05-07 20:48 | 40.36630 | -3.45589 | 4008 ft | 163 kts | 322° |
| 2026-05-07 20:49 | 40.37529 | -3.46498 | 4000 ft | 163 kts | 322° |
| 2026-05-07 20:49 | 40.38430 | -3.47409 | 3874 ft | 163 kts | 323° |
| 2026-05-07 20:49 | 40.39329 | -3.48318 | 3700 ft | 162 kts | 323° |
| 2026-05-07 20:49 | 40.40218 | -3.49218 | 3498 ft | 160 kts | 323° |
| 2026-05-07 20:50 | 40.41099 | -3.50109 | 3294 ft | 159 kts | 323° |
| 2026-05-07 20:50 | 40.41974 | -3.50996 | 3083 ft | 159 kts | 322° |
| 2026-05-07 20:50 | 40.42832 | -3.51865 | 2851 ft | 152 kts | 323° |
| 2026-05-07 20:50 | 40.43659 | -3.52703 | 2646 ft | 149 kts | 323° |
| 2026-05-07 20:51 | 40.44479 | -3.53534 | 2441 ft | 149 kts | 323° |
| 2026-05-07 20:51 | 40.45297 | -3.54363 | 2244 ft | 149 kts | 323° |
| 2026-05-07 20:51 | 40.46119 | -3.55193 | 2048 ft | 149 kts | 324° |
| 2026-05-07 20:51 | 40.46922 | -3.56004 | 1977 ft | 135 kts | 323° |
| 2026-05-07 20:52 | 40.47549 | -3.56643 | 1995 ft | 90 kts | 322° |
| 2026-05-07 20:52 | 40.47893 | -3.56990 | 1998 ft | 39 kts | 328° |
| 2026-05-07 20:52 | 40.48091 | -3.57120 | 2003 ft | 29 kts | 339° |
| 2026-05-07 20:52 | 40.48256 | -3.57185 | 2003 ft | 20 kts | 348° |
| 2026-05-07 20:53 | 40.48384 | -3.57218 | 2002 ft | 19 kts | 353° |
| 2026-05-07 20:53 | 40.48534 | -3.57226 | 1996 ft | 24 kts | 0° |
| 2026-05-07 20:53 | 40.48687 | -3.57225 | 1989 ft | 19 kts | 360° |
| 2026-05-07 20:53 | 40.48786 | -3.57225 | 1984 ft | 0 kts | 360° |
| 2026-05-07 20:55 | 40.48805 | -3.57226 | 1985 ft | 6 kts | 359° |
| 2026-05-07 20:55 | 40.48844 | -3.57227 | 1983 ft | 7 kts | 359° |
| 2026-05-07 20:56 | 40.48932 | -3.57228 | 1983 ft | 15 kts | 359° |
| 2026-05-07 20:56 | 40.49040 | -3.57228 | 1983 ft | 16 kts | 359° |
| 2026-05-07 20:56 | 40.49161 | -3.57229 | 1984 ft | 18 kts | 359° |
| 2026-05-07 20:56 | 40.49272 | -3.57210 | 1982 ft | 16 kts | 43° |
| 2026-05-07 20:57 | 40.49288 | -3.57089 | 1979 ft | 12 kts | 90° |
| 2026-05-07 20:57 | 40.49337 | -3.57002 | 1977 ft | 14 kts | 6° |
| 2026-05-07 20:57 | 40.49430 | -3.57002 | 1975 ft | 12 kts | 360° |
| 2026-05-07 20:57 | 40.49502 | -3.57003 | 1978 ft | 8 kts | 359° |
| 2026-05-07 20:58 | 40.49529 | -3.56996 | 1979 ft | 3 kts | 33° |
| 2026-05-07 20:58 | 40.49537 | -3.56955 | 1974 ft | 7 kts | 89° |
| 2026-05-07 20:58 | 40.49539 | -3.56893 | 1972 ft | 5 kts | 89° |
| 2026-05-07 20:58 | 40.49539 | -3.56866 | 1972 ft | 2 kts | 89° |
| 2026-05-07 20:59 | 40.49539 | -3.56859 | 1972 ft | 0 kts | 89° |